createdAt,value
2018-05-29T00:01:37.793Z,101483.34
2018-05-29T00:06:40.296Z,101478.75
2018-05-29T00:11:42.866Z,101478.28
2018-05-29T00:16:45.318Z,101472.38
2018-05-29T00:21:47.840Z,101472.69
2018-05-29T00:26:50.333Z,101465.59
2018-05-29T00:31:52.861Z,101452.38
2018-05-29T00:36:55.460Z,101455.52
2018-05-29T00:41:58.036Z,101455.14
2018-05-29T00:47:00.568Z,101442.77
2018-05-29T00:52:03.075Z,101442.02
2018-05-29T00:57:05.566Z,101432.91
2018-05-29T01:02:08.555Z,101433.73
2018-05-29T01:07:11.516Z,101426.30
2018-05-29T01:12:14.007Z,101429.07
2018-05-29T01:17:16.483Z,101433.30
2018-05-29T01:22:18.997Z,101431.80
2018-05-29T01:27:21.554Z,101429.40
2018-05-29T01:32:24.079Z,101420.77
2018-05-29T01:37:26.579Z,101426.94
2018-05-29T01:42:29.045Z,101421.48
2018-05-29T01:47:31.561Z,101418.69
2018-05-29T01:52:34.096Z,101428.24
2018-05-29T01:57:36.609Z,101421.20
2018-05-29T02:02:39.355Z,101420.02
2018-05-29T02:07:41.839Z,101427.56
2018-05-29T02:12:44.310Z,101419.44
2018-05-29T02:17:46.800Z,101426.24
2018-05-29T02:22:49.304Z,101425.48
2018-05-29T02:27:51.827Z,101421.95
2018-05-29T02:32:54.401Z,101416.97
2018-05-29T02:37:56.915Z,101416.32
2018-05-29T02:42:59.415Z,101413.71
2018-05-29T02:48:01.943Z,101411.42
2018-05-29T02:53:05.372Z,101400.47
2018-05-29T02:58:07.884Z,101402.02
2018-05-29T03:03:10.359Z,101404.52
2018-05-29T03:08:12.887Z,101411.22
2018-05-29T03:13:15.364Z,101397.43
2018-05-29T03:18:17.868Z,101400.78
2018-05-29T03:23:20.385Z,101403.59
2018-05-29T03:28:22.903Z,101403.28
2018-05-29T03:33:25.555Z,101398.25
2018-05-29T03:38:28.882Z,101397.84
2018-05-29T03:43:31.365Z,101403.05
2018-05-29T03:48:33.916Z,101401.81
2018-05-29T03:53:36.401Z,101403.48
2018-05-29T03:58:38.859Z,101405.44
2018-05-29T04:03:42.083Z,101408.48
2018-05-29T04:08:44.618Z,101412.95
2018-05-29T04:13:47.147Z,101410.81
2018-05-29T04:18:49.823Z,101414.19
2018-05-29T04:23:52.463Z,101420.13
2018-05-29T04:28:55.051Z,101404.00
2018-05-29T04:33:58.583Z,101404.27
2018-05-29T04:39:01.097Z,101403.77
2018-05-29T04:44:03.591Z,101401.51
2018-05-29T04:49:06.079Z,101408.59
2018-05-29T04:54:08.605Z,101417.45
2018-05-29T04:59:11.189Z,101403.41
2018-05-29T05:04:13.699Z,101401.72
2018-05-29T05:09:16.191Z,101403.18
2018-05-29T05:14:18.781Z,101405.38
2018-05-29T05:19:21.287Z,101408.03
2018-05-29T05:24:23.794Z,101410.11
2018-05-29T05:29:26.311Z,101414.60
2018-05-29T05:34:28.824Z,101415.83
2018-05-29T05:39:31.340Z,101416.34
2018-05-29T05:44:33.838Z,101411.30
2018-05-29T05:49:36.591Z,101414.08
2018-05-29T05:54:39.101Z,101415.63
2018-05-29T05:59:41.588Z,101415.78
2018-05-29T06:04:44.079Z,101412.70
2018-05-29T06:09:46.588Z,101410.94
2018-05-29T06:14:49.127Z,101409.98
2018-05-29T06:19:51.657Z,101404.54
2018-05-29T06:24:54.201Z,101400.55
2018-05-29T06:29:56.686Z,101404.98
2018-05-29T06:34:59.207Z,101409.23
2018-05-29T06:40:01.788Z,101399.73
2018-05-29T06:45:04.358Z,101392.05
2018-05-29T06:50:06.792Z,101391.98
2018-05-29T06:55:09.355Z,101395.14
2018-05-29T07:00:11.849Z,101387.84
2018-05-29T07:05:14.380Z,101376.23
2018-05-29T07:10:16.913Z,101377.97
2018-05-29T07:15:19.399Z,101376.03
2018-05-29T07:20:22.228Z,101365.89
2018-05-29T07:25:24.738Z,101360.81
2018-05-29T07:30:27.272Z,101355.21
2018-05-29T07:35:29.760Z,101341.19
2018-05-29T07:40:32.234Z,101351.03
2018-05-29T07:45:34.756Z,101342.29
2018-05-29T07:50:37.245Z,101335.39
2018-05-29T07:55:39.734Z,101335.29
2018-05-29T08:00:42.233Z,101316.66
2018-05-29T08:05:44.744Z,101318.01
2018-05-29T08:10:47.241Z,101315.47
2018-05-29T08:15:49.747Z,101311.84
2018-05-29T08:20:52.282Z,101304.59
2018-05-29T08:25:54.845Z,101311.69
2018-05-29T08:30:57.404Z,101282.83
2018-05-29T08:35:59.932Z,101285.36
2018-05-29T08:41:02.425Z,101287.76
2018-05-29T08:46:04.935Z,101275.38
2018-05-29T08:51:07.422Z,101269.88
2018-05-29T08:56:09.916Z,101270.22
2018-05-29T09:01:12.393Z,101262.88
2018-05-29T09:06:14.866Z,101261.70
2018-05-29T09:11:17.357Z,101255.31
2018-05-29T09:16:19.865Z,101256.89
2018-05-29T09:21:22.380Z,101252.70
2018-05-29T09:26:24.912Z,101253.27
2018-05-29T09:31:27.425Z,101249.48
2018-05-29T09:36:29.919Z,101243.16
2018-05-29T09:41:32.470Z,101239.63
2018-05-29T09:46:35.609Z,101233.61
2018-05-29T09:51:38.113Z,101218.73
2018-05-29T09:56:40.661Z,101231.59
2018-05-29T10:01:43.133Z,101233.84
2018-05-29T10:06:45.626Z,101232.34
2018-05-29T10:11:48.168Z,101220.39
2018-05-29T10:16:50.693Z,101219.63
2018-05-29T10:21:53.496Z,101211.64
2018-05-29T10:26:56.047Z,101217.17
2018-05-29T10:31:58.544Z,101205.59
2018-05-29T10:37:01.036Z,101204.97
2018-05-29T10:42:03.684Z,101200.30
2018-05-29T10:47:06.135Z,101189.01
2018-05-29T10:52:08.646Z,101182.67
2018-05-29T10:57:11.176Z,101184.52
2018-05-29T11:02:13.758Z,101173.19
2018-05-29T11:07:16.517Z,101178.81
2018-05-29T11:12:19.090Z,101150.49
2018-05-29T11:17:21.614Z,101152.86
2018-05-29T11:22:24.145Z,101156.86
2018-05-29T11:27:26.659Z,101145.59
2018-05-29T11:32:29.180Z,101138.06
2018-05-29T11:37:31.679Z,101135.86
2018-05-29T11:42:34.162Z,101133.77
2018-05-29T11:47:36.659Z,101127.99
2018-05-29T11:52:39.257Z,101122.02
2018-05-29T11:57:41.760Z,101119.39
2018-05-29T12:02:44.818Z,101114.14
2018-05-29T12:07:47.343Z,101097.40
2018-05-29T12:12:49.864Z,101087.93
2018-05-29T12:17:52.402Z,101089.64
2018-05-29T12:22:54.919Z,101093.70
2018-05-29T12:27:57.412Z,101087.20
2018-05-29T12:32:59.883Z,101083.20
2018-05-29T12:38:02.370Z,101069.84
2018-05-29T12:43:04.889Z,101066.99
2018-05-29T12:48:07.350Z,101077.91
2018-05-29T12:53:09.838Z,101065.84
2018-05-29T12:58:12.320Z,101052.03
2018-05-29T13:03:14.826Z,101054.01
2018-05-29T13:08:17.379Z,101054.89
2018-05-29T13:13:19.903Z,101056.35
2018-05-29T13:18:22.423Z,101045.48
2018-05-29T13:23:24.982Z,101042.56
2018-05-29T13:28:27.515Z,101034.78
2018-05-29T13:33:29.999Z,101018.08
2018-05-29T13:38:32.498Z,101013.98
2018-05-29T13:43:34.981Z,101013.00
2018-05-29T13:48:37.570Z,101001.95
2018-05-29T13:53:40.033Z,100995.95
2018-05-29T13:58:42.526Z,100991.63
2018-05-29T14:03:45.033Z,100987.24
2018-05-29T14:08:48.241Z,100992.48
2018-05-29T14:13:51.891Z,100986.48
2018-05-29T14:18:54.463Z,100986.70
2018-05-29T14:23:56.979Z,100984.83
2018-05-29T14:28:59.501Z,100974.83
2018-05-29T14:34:02.178Z,100972.57
2018-05-29T14:39:05.393Z,100957.80
2018-05-29T14:44:08.043Z,100950.41
2018-05-29T14:49:11.473Z,100953.55
2018-05-29T14:54:14.206Z,100935.39
2018-05-29T14:59:16.709Z,100933.84
2018-05-29T15:04:19.230Z,100925.51
2018-05-29T15:09:21.728Z,100914.42
2018-05-29T15:14:24.371Z,100897.21
2018-05-29T15:19:26.931Z,100901.19
2018-05-29T15:24:29.452Z,100891.14
2018-05-29T15:29:32.064Z,100868.42
2018-05-29T15:34:34.557Z,100867.08
2018-05-29T15:39:37.112Z,100865.38
2018-05-29T15:44:39.706Z,100856.61
2018-05-29T15:49:42.174Z,100862.92
2018-05-29T15:54:44.697Z,100864.72
2018-05-29T15:59:47.190Z,100856.46
2018-05-29T16:04:49.734Z,100852.11
2018-05-29T16:09:52.212Z,100852.10
2018-05-29T16:14:55.225Z,100852.05
2018-05-29T16:19:57.822Z,100852.94
2018-05-29T16:25:00.390Z,100846.48
2018-05-29T16:30:02.904Z,100848.60
2018-05-29T16:35:05.404Z,100850.34
2018-05-29T16:40:07.998Z,100855.24
2018-05-29T16:45:10.478Z,100846.98
2018-05-29T16:50:12.963Z,100851.47
2018-05-29T16:55:15.530Z,100852.56
2018-05-29T17:00:18.284Z,100856.28
2018-05-29T17:05:20.775Z,100850.48
2018-05-29T17:10:24.057Z,100848.92
2018-05-29T17:15:26.632Z,100846.08
2018-05-29T17:20:29.086Z,100843.04
2018-05-29T17:25:31.593Z,100843.78
2018-05-29T17:30:34.109Z,100853.77
2018-05-29T17:35:36.609Z,100851.94
2018-05-29T17:40:39.300Z,100864.73
2018-05-29T17:45:41.807Z,100859.17
2018-05-29T17:50:44.285Z,100861.63
2018-05-29T17:55:47.177Z,100862.71
2018-05-29T18:00:49.791Z,100877.78
2018-05-29T18:05:52.281Z,100874.03
2018-05-29T18:10:57.600Z,100865.87
2018-05-29T18:16:00.134Z,100871.66
2018-05-29T18:21:04.781Z,100873.76
2018-05-29T18:26:07.304Z,100872.38
2018-05-29T18:31:09.851Z,100872.20
2018-05-29T18:36:18.156Z,100877.07
2018-05-29T18:41:24.203Z,100894.78
2018-05-29T18:46:27.018Z,100904.27
2018-05-29T18:51:32.961Z,100912.45
2018-05-29T18:56:37.064Z,100918.30
2018-05-29T19:01:39.689Z,100919.03
2018-05-29T19:06:42.396Z,100932.25
2018-05-29T19:11:44.977Z,100937.61
2018-05-29T19:16:49.090Z,100931.66
2018-05-29T19:21:52.135Z,100947.56
2018-05-29T19:26:55.873Z,100953.13
2018-05-29T19:31:58.344Z,100950.81
2018-05-29T19:37:00.944Z,100955.02
2018-05-29T19:42:05.595Z,100960.44
2018-05-29T19:47:08.108Z,100968.22
2018-05-29T19:52:10.814Z,100974.47
2018-05-29T19:57:13.523Z,100971.31
2018-05-29T20:02:16.034Z,100973.09
2018-05-29T20:07:18.581Z,100967.79
2018-05-29T20:12:21.047Z,100964.64
2018-05-29T20:17:30.540Z,100963.07
2018-05-29T20:22:33.033Z,100955.24
2018-05-29T20:27:35.879Z,100958.52
2018-05-29T20:32:39.566Z,100958.07
2018-05-29T20:37:42.080Z,100950.91
2018-05-29T20:42:44.559Z,100947.20
2018-05-29T20:47:47.776Z,100938.30
2018-05-29T20:52:51.600Z,100943.30
2018-05-29T20:57:54.084Z,100929.78
2018-05-29T21:02:57.973Z,100931.74
2018-05-29T21:08:01.072Z,100931.34
2018-05-29T21:13:03.773Z,100928.83
2018-05-29T21:18:06.852Z,100924.78
2018-05-29T21:23:09.376Z,100923.40
2018-05-29T21:28:12.284Z,100917.27
2018-05-29T21:33:15.467Z,100921.50
2018-05-29T21:38:17.971Z,100924.88
2018-05-29T21:43:20.471Z,100920.94
2018-05-29T21:48:22.954Z,100920.45
2018-05-29T21:53:26.194Z,100930.96
2018-05-29T21:58:28.730Z,100922.25
2018-05-29T22:03:31.213Z,100922.00
2018-05-29T22:08:33.789Z,100920.47
2018-05-29T22:13:36.313Z,100913.70
2018-05-29T22:18:38.814Z,100924.85
2018-05-29T22:23:41.303Z,100918.95
2018-05-29T22:28:43.792Z,100922.78
2018-05-29T22:33:46.282Z,100920.80
2018-05-29T22:38:48.743Z,100937.11
2018-05-29T22:43:51.290Z,100941.92
2018-05-29T22:48:53.813Z,100936.53
2018-05-29T22:53:56.282Z,100943.95
2018-05-29T22:58:58.844Z,100944.36
2018-05-29T23:04:01.300Z,100943.62
2018-05-29T23:09:03.814Z,100941.66
2018-05-29T23:14:06.365Z,100940.18
2018-05-29T23:19:08.868Z,100938.63
2018-05-29T23:24:11.363Z,100936.47
2018-05-29T23:29:13.832Z,100936.79
2018-05-29T23:34:16.372Z,100932.33
2018-05-29T23:39:18.840Z,100932.65
2018-05-29T23:44:21.326Z,100937.52
2018-05-29T23:49:23.827Z,100952.00
2018-05-29T23:54:26.306Z,100944.06
2018-05-29T23:59:28.792Z,100947.48
